Time;durP1;ratioP1;P1;durP2;ratioP2;P2;SDS_P1;SDS_P2;PMS_P1;PMS_P2;Temp;Humidity;BMP_temperature;BMP_pressure;BME280_temperature;BME280_humidity;BME280_pressure;Samples;Min_cycle;Max_cycle;Signal;HPM_P1;HPM_P2
2022/12/21 00:01:15;;;;;;;79.68;31.63;;;11.10;99.90;;;;;;4975704;28;19906;-89
2022/12/21 00:03:42;;;;;;;108.78;34.75;;;11.00;99.90;;;;;;4975462;28;20033;-89
2022/12/21 00:06:09;;;;;;;125.97;39.28;;;11.00;99.90;;;;;;4975362;28;20031;-89
2022/12/21 00:08:37;;;;;;;107.82;35.50;;;11.00;99.90;;;;;;4975550;28;20023;-89
2022/12/21 00:11:03;;;;;;;86.72;34.00;;;11.00;99.90;;;;;;4958584;28;20515;-85
2022/12/21 00:13:31;;;;;;;116.43;38.92;;;11.00;99.90;;;;;;4974169;28;20062;-85
2022/12/21 00:15:59;;;;;;;112.53;37.33;;;11.00;99.90;;;;;;4974203;28;20063;-85
2022/12/21 00:18:25;;;;;;;86.07;34.95;;;11.00;99.90;;;;;;4975335;28;20023;-85
2022/12/21 00:21:05;;;;;;;115.63;37.88;;;11.00;99.90;;;;;;4974008;28;20560;-86
2022/12/21 00:23:31;;;;;;;121.90;39.97;;;11.00;99.90;;;;;;4975474;28;20400;-85
2022/12/21 00:25:59;;;;;;;104.97;35.42;;;11.00;99.90;;;;;;4974071;28;20567;-85
2022/12/21 00:28:25;;;;;;;106.93;37.25;;;11.00;99.90;;;;;;4974894;28;20387;-88
2022/12/21 00:30:51;;;;;;;118.50;38.35;;;11.00;99.90;;;;;;4975918;28;20530;-89
2022/12/21 00:33:16;;;;;;;114.38;37.10;;;11.00;99.90;;;;;;4958700;28;20058;-89
2022/12/21 00:35:47;;;;;;;107.43;37.00;;;11.00;99.90;;;;;;4958955;28;20030;-88
2022/12/21 00:38:13;;;;;;;113.60;35.80;;;10.90;99.90;;;;;;4974855;28;20019;-88
2022/12/21 00:40:38;;;;;;;103.63;34.30;;;10.90;99.90;;;;;;4974572;28;20069;-88
2022/12/21 00:43:04;;;;;;;108.82;34.70;;;10.90;99.90;;;;;;4975189;28;20031;-88
2022/12/21 00:45:30;;;;;;;148.57;38.08;;;10.90;99.90;;;;;;4974937;28;20023;-88
2022/12/21 00:47:56;;;;;;;131.10;37.25;;;10.90;99.90;;;;;;4958622;28;20117;-89
2022/12/21 00:50:21;;;;;;;125.30;36.35;;;10.90;99.90;;;;;;4958480;28;20082;-88
2022/12/21 00:52:47;;;;;;;107.00;36.75;;;10.90;99.90;;;;;;4958913;28;20070;-88
2022/12/21 00:55:13;;;;;;;137.43;39.35;;;10.90;99.90;;;;;;4958340;28;20031;-89
2022/12/21 00:57:39;;;;;;;120.53;37.08;;;10.90;99.90;;;;;;4958319;28;20114;-88
2022/12/21 01:00:05;;;;;;;101.47;35.30;;;10.90;99.90;;;;;;4958177;28;20054;-89
2022/12/21 01:02:31;;;;;;;96.60;35.53;;;10.80;99.90;;;;;;4958483;28;20023;-89
2022/12/21 01:04:56;;;;;;;108.25;36.22;;;10.80;99.90;;;;;;4974935;28;20053;-89
2022/12/21 01:07:22;;;;;;;92.43;34.90;;;10.80;99.90;;;;;;4958564;28;20078;-89
2022/12/21 01:09:48;;;;;;;78.15;31.90;;;10.80;99.90;;;;;;4958424;28;20085;-90
2022/12/21 01:12:13;;;;;;;140.25;37.90;;;10.80;99.90;;;;;;4960969;28;20121;-90
2022/12/21 01:14:39;;;;;;;92.55;34.03;;;10.80;99.90;;;;;;4962351;28;20026;-90
2022/12/21 01:17:05;;;;;;;98.28;34.22;;;10.80;99.90;;;;;;4962079;28;20034;-84
2022/12/21 01:19:30;;;;;;;110.55;35.03;;;10.80;99.90;;;;;;4961181;28;20030;-84
2022/12/21 01:21:56;;;;;;;94.35;35.28;;;10.80;99.90;;;;;;4961303;28;20039;-85
2022/12/21 01:24:22;;;;;;;129.82;39.30;;;10.80;99.90;;;;;;4977335;28;20053;-84
2022/12/21 01:26:47;;;;;;;105.70;35.00;;;10.80;99.90;;;;;;4960961;28;20491;-84
2022/12/21 01:29:13;;;;;;;101.53;37.28;;;10.80;99.90;;;;;;4961162;28;20035;-84
2022/12/21 01:31:39;;;;;;;91.68;35.42;;;10.80;99.90;;;;;;4977140;28;20031;-84
2022/12/21 01:34:05;;;;;;;92.13;34.35;;;10.80;99.90;;;;;;4977415;28;20468;-89
2022/12/21 01:36:31;;;;;;;95.00;33.58;;;10.80;99.90;;;;;;4961631;28;20081;-89
2022/12/21 01:38:57;;;;;;;105.47;35.20;;;10.80;99.90;;;;;;4962185;28;20031;-89
2022/12/21 01:41:25;;;;;;;124.10;36.25;;;10.70;99.90;;;;;;4961703;28;20033;-89
2022/12/21 01:43:52;;;;;;;107.60;35.00;;;10.80;99.90;;;;;;4977570;28;20066;-89
2022/12/21 01:46:46;;;;;;;89.72;34.22;;;10.70;99.90;;;;;;4978012;28;20027;-90
2022/12/21 01:49:26;;;;;;;106.70;33.72;;;10.70;99.90;;;;;;4977938;28;20026;-90
2022/12/21 01:52:13;;;;;;;104.83;34.63;;;10.70;99.90;;;;;;4977761;28;20037;-88
2022/12/21 01:54:47;;;;;;;121.00;36.45;;;10.70;99.90;;;;;;4978319;28;20030;-89
2022/12/21 01:57:15;;;;;;;121.07;36.67;;;10.60;99.90;;;;;;4977511;28;20027;-89
2022/12/21 01:59:45;;;;;;;85.03;34.53;;;10.60;99.90;;;;;;4961749;28;20037;-89
2022/12/21 02:02:22;;;;;;;102.10;36.08;;;10.60;99.90;;;;;;4977953;28;20074;-89
2022/12/21 02:04:51;;;;;;;98.13;33.80;;;10.60;99.90;;;;;;4978636;28;20031;-89
2022/12/21 02:07:20;;;;;;;105.45;34.00;;;10.60;99.90;;;;;;4977112;28;20384;-84
2022/12/21 02:09:46;;;;;;;121.07;35.45;;;10.60;99.90;;;;;;4976217;28;20023;-84
2022/12/21 02:12:15;;;;;;;111.15;32.95;;;10.60;99.90;;;;;;4960390;28;20038;-84
2022/12/21 02:14:44;;;;;;;97.88;33.78;;;10.60;99.90;;;;;;4977607;28;20030;-84
2022/12/21 02:17:15;;;;;;;96.50;33.78;;;10.60;99.90;;;;;;4976172;28;20088;-84
2022/12/21 02:19:50;;;;;;;118.85;34.60;;;10.60;99.90;;;;;;4976289;28;20030;-84
2022/12/21 02:22:38;;;;;;;110.03;31.75;;;10.60;99.90;;;;;;4976046;28;20023;-85
2022/12/21 02:25:25;;;;;;;96.15;32.30;;;10.60;99.90;;;;;;4976785;28;20022;-85
2022/12/21 02:27:59;;;;;;;122.60;34.65;;;10.50;99.90;;;;;;4977299;28;20023;-86
2022/12/21 02:30:56;;;;;;;126.15;33.88;;;10.50;99.90;;;;;;4976295;28;20065;-86
2022/12/21 02:33:40;;;;;;;94.80;32.47;;;10.50;99.90;;;;;;4984571;28;20034;-85
2022/12/21 02:36:33;;;;;;;135.32;36.53;;;10.50;99.90;;;;;;4976214;28;20030;-85
2022/12/21 02:39:40;;;;;;;211.80;40.00;;;10.50;99.90;;;;;;4975977;28;20026;-86
2022/12/21 02:44:12;;;;;;;104.78;32.28;;;10.50;99.90;;;;;;4976199;28;20094;-85
2022/12/21 02:45:12;;;;;;;119.15;34.55;;;10.50;99.90;;;;;;4978282;28;20022;-85
2022/12/21 02:47:50;;;;;;;98.93;34.75;;;10.50;99.90;;;;;;4975863;28;20464;-85
2022/12/21 02:50:18;;;;;;;106.22;32.35;;;10.40;99.90;;;;;;4975677;28;20547;-85
2022/12/21 02:52:54;;;;;;;109.53;31.42;;;10.40;99.90;;;;;;4975954;28;20027;-85
2022/12/21 02:55:20;;;;;;;113.90;33.00;;;10.40;99.90;;;;;;4975566;28;20133;-84
2022/12/21 02:57:46;;;;;;;114.45;35.13;;;10.40;99.90;;;;;;4959579;28;20121;-83
2022/12/21 03:00:17;;;;;;;111.40;34.63;;;10.40;99.90;;;;;;4959254;28;20027;-84
2022/12/21 03:03:47;;;;;;;100.88;35.00;;;10.40;99.90;;;;;;4975621;28;20035;-84
2022/12/21 03:06:07;;;;;;;138.38;37.60;;;10.30;99.90;;;;;;4976687;28;20085;-85
2022/12/21 03:08:51;;;;;;;115.80;34.28;;;10.30;99.90;;;;;;4975488;28;20472;-85
2022/12/21 03:11:58;;;;;;;112.50;35.63;;;10.30;99.90;;;;;;4976304;28;20058;-85
2022/12/21 03:14:44;;;;;;;98.93;31.58;;;10.20;99.90;;;;;;4975339;28;20039;-85
2022/12/21 03:17:40;;;;;;;95.00;32.53;;;10.20;99.90;;;;;;4975146;28;20106;-84
2022/12/21 03:20:12;;;;;;;85.53;33.28;;;10.10;99.90;;;;;;4976011;28;20030;-89
2022/12/21 03:22:59;;;;;;;87.97;32.50;;;10.20;99.90;;;;;;4976232;28;20050;-89
2022/12/21 03:25:35;;;;;;;190.13;39.33;;;10.20;99.90;;;;;;4976138;28;20037;-89
2022/12/21 03:28:06;;;;;;;137.05;38.05;;;10.20;99.90;;;;;;4976151;28;20038;-89
2022/12/21 03:30:40;;;;;;;180.23;41.22;;;10.10;99.90;;;;;;4975926;28;20023;-83
2022/12/21 03:33:10;;;;;;;73.05;29.92;;;10.20;99.90;;;;;;4974861;28;20026;-84
2022/12/21 03:35:46;;;;;;;118.15;36.10;;;10.20;99.90;;;;;;4974449;28;20089;-84
2022/12/21 03:38:42;;;;;;;87.05;31.60;;;10.20;99.90;;;;;;4974770;28;20191;-84
2022/12/21 03:41:14;;;;;;;103.38;33.72;;;10.20;99.90;;;;;;4972896;28;20035;-84
2022/12/21 03:43:42;;;;;;;106.35;31.75;;;10.20;99.90;;;;;;4974671;28;20035;-84
2022/12/21 03:46:22;;;;;;;126.85;34.15;;;10.20;99.90;;;;;;4975885;28;20381;-84
2022/12/21 03:48:48;;;;;;;97.47;29.40;;;10.20;99.90;;;;;;4974844;28;20058;-85
2022/12/21 03:51:46;;;;;;;80.53;30.17;;;10.20;99.90;;;;;;4974533;28;20038;-85
2022/12/21 03:54:52;;;;;;;104.63;31.77;;;10.20;99.90;;;;;;4974419;28;20034;-85
2022/12/21 03:57:19;;;;;;;133.63;33.95;;;10.20;99.90;;;;;;4974335;28;20388;-85
2022/12/21 03:59:48;;;;;;;102.75;30.83;;;10.20;99.90;;;;;;4975882;28;20030;-85
2022/12/21 04:02:25;;;;;;;110.30;30.50;;;10.20;99.90;;;;;;4974856;28;20484;-85
2022/12/21 04:05:12;;;;;;;112.75;26.73;;;10.20;99.90;;;;;;4969969;28;20066;-89
2022/12/21 04:07:40;;;;;;;72.05;26.45;;;10.20;99.90;;;;;;4956041;28;20503;-89
2022/12/21 04:10:12;;;;;;;94.78;29.55;;;10.10;99.90;;;;;;4955931;28;20134;-89
2022/12/21 04:12:38;;;;;;;98.60;25.33;;;10.10;99.90;;;;;;4956018;29;20031;-89
2022/12/21 04:15:08;;;;;;;105.85;28.77;;;10.10;99.90;;;;;;4955974;28;20219;-90
2022/12/21 04:17:34;;;;;;;181.73;31.70;;;10.10;99.90;;;;;;4955760;28;20087;-90
2022/12/21 04:20:02;;;;;;;86.32;27.42;;;10.10;99.90;;;;;;4955839;29;20035;-90
2022/12/21 04:28:09;;;;;;;104.75;30.55;;;10.10;99.90;;;;;;4976479;28;20033;-90
2022/12/21 04:30:43;;;;;;;122.68;25.27;;;10.10;99.90;;;;;;4959830;28;20041;-90
2022/12/21 04:33:11;;;;;;;116.43;28.55;;;10.10;99.90;;;;;;4958878;28;20539;-90
2022/12/21 04:37:30;;;;;;;98.13;26.70;;;10.10;99.90;;;;;;4974456;28;20034;-90
2022/12/21 04:38:25;;;;;;;99.43;26.05;;;10.10;99.90;;;;;;4975254;28;20026;-85
2022/12/21 04:40:54;;;;;;;59.03;25.27;;;10.10;99.90;;;;;;4958017;28;20023;-85
2022/12/21 04:43:21;;;;;;;64.03;24.52;;;10.10;99.90;;;;;;4974957;28;20037;-90
2022/12/21 04:45:46;;;;;;;72.60;25.33;;;10.00;99.90;;;;;;4973968;28;20030;-90
2022/12/21 04:48:12;;;;;;;69.43;26.10;;;10.10;99.90;;;;;;4959194;28;20040;-90
2022/12/21 04:50:39;;;;;;;67.43;25.98;;;10.00;99.90;;;;;;4959021;28;20041;-90
2022/12/21 04:53:05;;;;;;;97.65;29.98;;;10.00;99.90;;;;;;4974894;28;20047;-90
2022/12/21 04:55:37;;;;;;;76.47;26.15;;;10.10;99.90;;;;;;4958581;28;20443;-90
2022/12/21 04:58:02;;;;;;;64.22;24.65;;;10.00;99.90;;;;;;4958575;28;20034;-89
2022/12/21 05:00:28;;;;;;;65.70;25.75;;;10.00;99.90;;;;;;4958449;28;20035;-90
2022/12/21 05:02:53;;;;;;;69.53;25.67;;;10.00;99.90;;;;;;4959161;28;20473;-90
2022/12/21 05:05:19;;;;;;;148.02;32.60;;;10.00;99.90;;;;;;4974348;28;20519;-90
2022/12/21 05:07:45;;;;;;;83.15;29.48;;;10.00;99.90;;;;;;4958244;28;20019;-90
2022/12/21 05:10:10;;;;;;;93.70;32.55;;;10.00;99.90;;;;;;4975334;28;20014;-90
2022/12/21 05:12:37;;;;;;;120.70;33.28;;;9.90;99.90;;;;;;4960327;28;20026;-90
2022/12/21 05:15:03;;;;;;;120.30;35.70;;;9.90;99.90;;;;;;4958249;28;20113;-89
2022/12/21 05:17:28;;;;;;;123.25;35.63;;;9.90;99.90;;;;;;4958429;28;20125;-90
2022/12/21 05:19:54;;;;;;;132.82;36.50;;;9.80;99.90;;;;;;4958189;28;20050;-90
2022/12/21 05:22:20;;;;;;;138.00;38.00;;;9.80;99.90;;;;;;4974374;28;20042;-90
2022/12/21 05:24:45;;;;;;;130.57;35.85;;;9.80;99.90;;;;;;4958272;28;20377;-90
2022/12/21 05:27:12;;;;;;;144.65;39.28;;;9.80;99.90;;;;;;4974436;28;20479;-89
2022/12/21 05:29:38;;;;;;;148.73;39.17;;;9.70;99.90;;;;;;4958105;28;20488;-90
2022/12/21 05:32:04;;;;;;;151.23;38.42;;;9.70;99.90;;;;;;4958462;28;20022;-90
2022/12/21 05:34:30;;;;;;;152.15;39.20;;;9.70;99.90;;;;;;4958149;28;20039;-90
2022/12/21 05:36:55;;;;;;;158.70;40.10;;;9.70;99.90;;;;;;4959151;28;20459;-90
2022/12/21 05:39:21;;;;;;;158.98;41.17;;;9.70;99.90;;;;;;4964805;28;20023;-89
2022/12/21 05:41:47;;;;;;;155.95;39.97;;;9.70;99.90;;;;;;4977938;28;20034;-90
2022/12/21 05:44:12;;;;;;;152.18;39.50;;;9.70;99.90;;;;;;4954659;29;20027;-90
2022/12/21 05:46:38;;;;;;;136.40;38.85;;;9.70;99.90;;;;;;4938540;28;20027;-84
2022/12/21 05:49:03;;;;;;;158.77;41.78;;;9.70;99.90;;;;;;4950965;28;20507;-85
2022/12/21 05:51:29;;;;;;;130.75;37.58;;;9.70;99.90;;;;;;4973179;28;20023;-86
2022/12/21 05:53:56;;;;;;;141.75;38.53;;;9.70;99.90;;;;;;4972836;28;20447;-86
2022/12/21 05:56:22;;;;;;;147.15;40.28;;;9.70;99.90;;;;;;4972997;28;20038;-86
2022/12/21 05:58:48;;;;;;;124.47;41.28;;;9.70;99.90;;;;;;4976152;28;20030;-85
2022/12/21 06:01:14;;;;;;;159.15;42.45;;;9.70;99.90;;;;;;4977004;28;20035;-90
2022/12/21 06:03:40;;;;;;;141.20;41.47;;;9.70;99.90;;;;;;4977657;28;20114;-89
2022/12/21 06:06:15;;;;;;;151.20;40.15;;;9.70;99.90;;;;;;4961440;28;20031;-90
2022/12/21 06:08:41;;;;;;;130.05;40.47;;;9.70;99.90;;;;;;4977938;28;20026;-90
2022/12/21 06:11:10;;;;;;;144.05;41.30;;;9.70;99.90;;;;;;4976851;28;20043;-89
2022/12/21 06:13:36;;;;;;;127.60;37.03;;;9.60;99.90;;;;;;4977232;28;20018;-90
2022/12/21 06:16:04;;;;;;;127.00;38.80;;;9.60;99.90;;;;;;4977182;28;20039;-90
2022/12/21 06:18:30;;;;;;;143.07;39.92;;;9.60;99.90;;;;;;4976453;28;20063;-84
2022/12/21 06:20:55;;;;;;;132.68;40.65;;;9.60;99.90;;;;;;4960131;28;20043;-84
2022/12/21 06:23:22;;;;;;;144.25;37.88;;;9.50;99.90;;;;;;4976264;28;20023;-85
2022/12/21 06:25:48;;;;;;;122.50;37.13;;;9.50;99.90;;;;;;4976257;28;20031;-85
2022/12/21 06:28:13;;;;;;;116.53;35.97;;;9.50;99.90;;;;;;4976483;28;20041;-89
2022/12/21 06:30:39;;;;;;;110.20;37.70;;;9.50;99.90;;;;;;4961336;28;20031;-89
2022/12/21 06:33:05;;;;;;;123.45;36.58;;;9.50;99.90;;;;;;4961117;28;20041;-90
2022/12/21 06:35:32;;;;;;;156.40;40.28;;;9.50;99.90;;;;;;4960357;28;20033;-86
2022/12/21 06:37:58;;;;;;;108.25;34.92;;;9.50;99.90;;;;;;4976147;28;20019;-86
2022/12/21 06:40:24;;;;;;;159.27;39.45;;;9.50;99.90;;;;;;4976067;28;20018;-86
2022/12/21 06:42:49;;;;;;;143.75;37.40;;;9.50;99.90;;;;;;4976458;28;20074;-86
2022/12/21 06:45:15;;;;;;;124.95;36.60;;;9.50;99.90;;;;;;4976144;28;20393;-86
2022/12/21 06:47:41;;;;;;;180.77;40.72;;;9.50;99.90;;;;;;4976211;28;20487;-86
2022/12/21 06:50:07;;;;;;;130.25;36.88;;;9.50;99.90;;;;;;4976299;28;20089;-89
2022/12/21 06:52:33;;;;;;;96.07;33.17;;;9.60;99.90;;;;;;4959959;28;20027;-85
2022/12/21 06:54:58;;;;;;;97.20;35.13;;;9.60;99.90;;;;;;4993800;28;20086;-84
2022/12/21 06:57:24;;;;;;;107.28;35.17;;;9.50;99.90;;;;;;4976873;28;20031;-85
2022/12/21 06:59:49;;;;;;;89.88;35.35;;;9.50;99.90;;;;;;4979361;28;20027;-85
2022/12/21 07:02:15;;;;;;;139.15;40.67;;;9.50;99.90;;;;;;4977550;28;20130;-85
2022/12/21 07:04:41;;;;;;;128.45;36.88;;;9.50;99.90;;;;;;4962379;28;20050;-85
2022/12/21 07:07:06;;;;;;;100.10;34.70;;;9.50;99.90;;;;;;4960883;28;20039;-86
2022/12/21 07:09:32;;;;;;;106.30;36.92;;;9.50;99.90;;;;;;4976452;28;20043;-85
2022/12/21 07:11:58;;;;;;;118.78;39.58;;;9.50;99.90;;;;;;4960523;28;20153;-85
2022/12/21 07:14:23;;;;;;;121.05;38.22;;;9.50;99.90;;;;;;4975846;28;20038;-85
2022/12/21 07:16:49;;;;;;;123.50;40.08;;;9.40;99.90;;;;;;4975615;28;20027;-86
2022/12/21 07:19:15;;;;;;;113.75;37.28;;;9.40;99.90;;;;;;4975756;28;20080;-85
2022/12/21 07:21:41;;;;;;;146.48;40.30;;;9.40;99.90;;;;;;4959198;28;20023;-85
2022/12/21 07:24:07;;;;;;;136.77;39.10;;;9.50;99.90;;;;;;4999209;23;20186;-88
2022/12/21 07:26:33;;;;;;;118.10;35.35;;;9.40;99.90;;;;;;4996415;28;20071;-88
2022/12/21 07:28:58;;;;;;;111.07;36.10;;;9.40;99.90;;;;;;4979882;28;20480;-88
2022/12/21 07:31:26;;;;;;;108.35;35.63;;;9.50;99.90;;;;;;4997101;28;20027;-89
2022/12/21 07:33:52;;;;;;;95.68;35.90;;;9.40;99.90;;;;;;4981394;28;20029;-89
2022/12/21 07:36:18;;;;;;;109.70;35.20;;;9.50;99.90;;;;;;4999365;28;20061;-85
2022/12/21 07:38:44;;;;;;;91.38;33.45;;;9.40;99.90;;;;;;4978260;28;20058;-85
2022/12/21 07:41:14;;;;;;;95.00;34.00;;;9.40;99.90;;;;;;4979156;28;20424;-88
2022/12/21 07:43:40;;;;;;;86.15;33.95;;;9.50;99.90;;;;;;4995123;28;20052;-88
2022/12/21 07:46:07;;;;;;;92.03;33.20;;;9.40;99.90;;;;;;4995036;28;20137;-88
2022/12/21 07:48:34;;;;;;;90.18;34.25;;;9.40;99.90;;;;;;4960506;28;20031;-90
2022/12/21 07:51:00;;;;;;;83.38;32.20;;;9.50;99.90;;;;;;4993197;28;20570;-90
2022/12/21 07:53:26;;;;;;;95.80;33.30;;;9.50;99.90;;;;;;4965753;28;20084;-90
2022/12/21 07:56:03;;;;;;;87.20;32.20;;;9.50;99.90;;;;;;4980729;28;20197;-88
2022/12/21 07:58:29;;;;;;;90.18;30.13;;;9.50;99.90;;;;;;4977902;28;20019;-85
2022/12/21 08:00:54;;;;;;;88.13;29.92;;;9.40;99.90;;;;;;4977561;28;20023;-85
2022/12/21 08:03:20;;;;;;;94.65;31.90;;;9.40;99.90;;;;;;4977872;28;20033;-85
2022/12/21 08:05:46;;;;;;;74.75;30.90;;;9.40;99.90;;;;;;4992508;28;20045;-85
2022/12/21 08:08:11;;;;;;;87.38;31.33;;;9.40;99.90;;;;;;4979994;28;20026;-85
2022/12/21 08:10:37;;;;;;;83.50;31.77;;;9.40;99.90;;;;;;4978537;28;20391;-85
2022/12/21 08:13:03;;;;;;;77.15;31.15;;;9.40;99.90;;;;;;4979386;28;20057;-85
2022/12/21 08:16:08;;;;;;;84.07;30.77;;;9.40;99.90;;;;;;4962431;28;20038;-87
2022/12/21 08:18:34;;;;;;;72.85;28.77;;;9.30;99.90;;;;;;4999606;28;20027;-89
2022/12/21 08:21:00;;;;;;;128.27;36.00;;;9.30;99.90;;;;;;4964679;28;20066;-88
2022/12/21 08:23:25;;;;;;;74.78;29.60;;;9.30;99.90;;;;;;4995105;28;20070;-89
2022/12/21 08:25:52;;;;;;;78.00;29.17;;;9.30;99.90;;;;;;4962491;28;20065;-89
2022/12/21 08:28:18;;;;;;;77.93;29.13;;;9.30;99.90;;;;;;4995514;28;20026;-89
2022/12/21 08:30:43;;;;;;;76.93;30.17;;;9.30;99.90;;;;;;4961932;28;20403;-89
2022/12/21 08:33:09;;;;;;;69.00;29.20;;;9.30;99.90;;;;;;4994699;28;20034;-89
2022/12/21 08:35:36;;;;;;;76.03;30.08;;;9.30;99.90;;;;;;4979212;28;20105;-91
2022/12/21 08:38:02;;;;;;;76.75;30.38;;;9.30;99.90;;;;;;4978430;28;20113;-92
2022/12/21 08:40:28;;;;;;;56.47;24.50;;;9.30;99.90;;;;;;4981868;28;20031;-90
2022/12/21 08:42:54;;;;;;;68.07;27.20;;;9.30;99.90;;;;;;4958627;28;20089;-89
2022/12/21 08:45:19;;;;;;;75.88;29.00;;;9.30;99.90;;;;;;4958959;28;20140;-90
2022/12/21 08:47:48;;;;;;;56.38;23.77;;;9.20;99.90;;;;;;4975211;28;20069;-85
2022/12/21 08:50:14;;;;;;;57.83;24.55;;;9.20;99.90;;;;;;4957809;28;20480;-85
2022/12/21 08:52:40;;;;;;;52.58;23.70;;;9.20;99.90;;;;;;4957889;28;20037;-85
2022/12/21 08:55:07;;;;;;;58.33;23.88;;;9.20;99.90;;;;;;4984097;28;20034;-85
2022/12/21 08:57:32;;;;;;;56.47;23.58;;;9.20;99.90;;;;;;4993682;28;20062;-85
2022/12/21 08:59:58;;;;;;;56.75;23.80;;;9.20;99.90;;;;;;4990374;28;20484;-85
2022/12/21 09:02:23;;;;;;;72.85;26.70;;;9.20;99.90;;;;;;4974907;28;20054;-90
2022/12/21 09:04:49;;;;;;;52.80;20.90;;;9.20;99.90;;;;;;4992878;28;20061;-86
2022/12/21 09:07:15;;;;;;;57.30;24.80;;;9.20;99.90;;;;;;4957482;28;20054;-84
2022/12/21 09:09:42;;;;;;;51.47;22.00;;;9.20;99.90;;;;;;4974899;28;20035;-85
2022/12/21 09:12:08;;;;;;;59.00;25.05;;;9.20;99.90;;;;;;4980905;28;20030;-85
2022/12/21 09:14:34;;;;;;;51.15;22.35;;;9.20;99.90;;;;;;4992844;28;20088;-85
2022/12/21 09:17:00;;;;;;;43.22;22.45;;;9.20;99.90;;;;;;4987335;28;20511;-85
2022/12/21 09:19:25;;;;;;;59.05;25.83;;;9.30;99.90;;;;;;4974651;28;20031;-84
2022/12/21 09:21:51;;;;;;;45.83;20.20;;;9.30;99.90;;;;;;4973963;28;20027;-89
2022/12/21 09:24:17;;;;;;;43.70;20.48;;;9.30;99.90;;;;;;4989763;28;20078;-89
2022/12/21 09:26:43;;;;;;;54.55;22.02;;;9.30;99.90;;;;;;4973970;28;20114;-89
2022/12/21 09:32:33;;;;;;;49.85;21.52;;;9.30;99.90;;;;;;4976324;28;20062;-89
2022/12/21 09:34:59;;;;;;;48.17;21.90;;;9.30;99.90;;;;;;4989062;28;20034;-88
2022/12/21 09:37:25;;;;;;;40.20;20.95;;;9.30;99.90;;;;;;4961315;28;20031;-84
2022/12/21 09:39:51;;;;;;;47.75;20.88;;;9.20;99.90;;;;;;4961188;28;20034;-84
2022/12/21 09:42:52;;;;;;;43.88;21.42;;;9.30;99.90;;;;;;4987792;28;20507;-83
2022/12/21 09:45:21;;;;;;;;;;;9.30;99.90;;;;;;4996828;28;20018;-84
2022/12/21 09:47:46;;;;;;;40.35;19.10;;;9.30;99.90;;;;;;5012365;28;20363;-83
2022/12/21 09:50:36;;;;;;;40.72;20.80;;;9.30;99.90;;;;;;4995592;28;20044;-84
2022/12/21 09:53:11;;;;;;;43.53;20.73;;;9.30;99.90;;;;;;4995558;28;20504;-84
2022/12/21 09:55:43;;;;;;;47.78;21.23;;;9.30;99.90;;;;;;4996565;28;20073;-89
2022/12/21 09:58:14;;;;;;;42.05;20.33;;;9.30;99.90;;;;;;4996539;28;20029;-89
2022/12/21 10:00:44;;;;;;;41.95;21.58;;;9.30;99.90;;;;;;4996491;28;20037;-88
2022/12/21 10:03:47;;;;;;;47.07;21.40;;;9.30;99.90;;;;;;4996683;28;20502;-84
2022/12/21 10:06:27;;;;;;;46.70;20.83;;;9.30;99.90;;;;;;4997720;28;20030;-84
2022/12/21 10:09:18;;;;;;;56.78;22.77;;;9.30;99.90;;;;;;4995956;28;20476;-85
2022/12/21 10:12:12;;;;;;;59.92;23.55;;;9.30;99.90;;;;;;4997145;28;20033;-89
2022/12/21 10:14:43;;;;;;;51.35;22.77;;;9.30;99.90;;;;;;4977020;28;20045;-90
2022/12/21 10:17:28;;;;;;;50.05;21.88;;;9.30;99.90;;;;;;4998310;28;20033;-89
2022/12/21 10:20:26;;;;;;;45.10;19.73;;;9.30;99.90;;;;;;4989495;28;20037;-89
2022/12/21 10:22:57;;;;;;;58.13;24.98;;;9.30;99.90;;;;;;4993756;28;20029;-88
2022/12/21 10:25:25;;;;;;;49.72;21.67;;;9.30;99.90;;;;;;4981433;28;20043;-89
2022/12/21 10:28:21;;;;;;;53.13;20.42;;;9.30;99.90;;;;;;4992104;28;20435;-89
2022/12/21 10:31:05;;;;;;;52.17;19.60;;;9.20;99.90;;;;;;4976131;28;20047;-89
2022/12/21 10:33:33;;;;;;;57.80;20.42;;;9.30;99.90;;;;;;5001796;28;20128;-89
2022/12/21 10:36:03;;;;;;;49.88;21.00;;;9.30;99.90;;;;;;4989849;28;20088;-87
2022/12/21 10:38:32;;;;;;;47.00;21.05;;;9.30;99.90;;;;;;4993694;28;20419;-89
2022/12/21 10:41:00;;;;;;;46.20;21.38;;;9.30;99.90;;;;;;4991236;28;20093;-90
2022/12/21 10:43:26;;;;;;;52.15;21.98;;;9.30;99.90;;;;;;4975586;28;20023;-84
2022/12/21 10:45:51;;;;;;;48.95;23.05;;;9.30;99.90;;;;;;4978808;28;20569;-84
2022/12/21 10:48:18;;;;;;;52.65;23.88;;;9.30;99.90;;;;;;4963700;28;20023;-85
2022/12/21 10:50:47;;;;;;;60.95;23.92;;;9.30;99.90;;;;;;4967373;28;20035;-84
2022/12/21 10:53:27;;;;;;;55.42;23.27;;;9.30;99.90;;;;;;4991602;28;20476;-83
2022/12/21 10:55:56;;;;;;;54.75;24.38;;;9.30;99.90;;;;;;4975734;28;20081;-84
2022/12/21 10:58:34;;;;;;;57.13;24.38;;;9.30;99.90;;;;;;4976294;28;20025;-83
2022/12/21 11:01:20;;;;;;;53.38;25.50;;;9.30;99.90;;;;;;4992966;28;20021;-90
2022/12/21 11:04:05;;;;;;;68.07;28.00;;;9.30;99.90;;;;;;4983071;28;20030;-90
2022/12/21 11:06:31;;;;;;;69.15;28.95;;;9.30;99.90;;;;;;4991381;28;20030;-90
2022/12/21 11:08:57;;;;;;;80.35;31.23;;;9.30;99.90;;;;;;4960364;28;20038;-90
2022/12/21 11:11:32;;;;;;;73.70;30.88;;;9.30;99.90;;;;;;4960221;28;20377;-90
2022/12/21 11:14:00;;;;;;;81.70;32.28;;;9.30;99.90;;;;;;4995247;28;20034;-90
2022/12/21 11:16:29;;;;;;;70.93;31.50;;;9.30;99.90;;;;;;4994941;28;20029;-90
2022/12/21 11:18:59;;;;;;;74.43;30.45;;;9.30;99.90;;;;;;4979416;28;20045;-91
2022/12/21 11:21:25;;;;;;;78.55;34.83;;;9.40;99.90;;;;;;4975311;28;20050;-89
2022/12/21 11:23:57;;;;;;;77.68;35.15;;;9.30;99.90;;;;;;4992456;28;20407;-90
2022/12/21 11:26:30;;;;;;;75.53;34.20;;;9.40;99.90;;;;;;4991113;28;20120;-90
2022/12/21 11:29:06;;;;;;;65.65;31.65;;;9.40;99.90;;;;;;4995291;28;20068;-90
2022/12/21 11:31:33;;;;;;;70.90;32.83;;;9.50;99.90;;;;;;4982380;28;20066;-90
2022/12/21 11:33:59;;;;;;;69.35;34.22;;;9.50;99.90;;;;;;4965225;28;20376;-84
2022/12/21 11:36:24;;;;;;;62.45;32.10;;;9.60;99.90;;;;;;4974653;28;20034;-84
2022/12/21 11:38:50;;;;;;;69.03;31.77;;;9.60;99.90;;;;;;4974583;28;20126;-84
2022/12/21 11:41:27;;;;;;;59.30;28.83;;;9.70;99.90;;;;;;4961068;28;20472;-84
2022/12/21 11:43:55;;;;;;;52.50;26.83;;;9.70;99.90;;;;;;4985574;28;20033;-84
2022/12/21 11:46:39;;;;;;;50.22;26.60;;;9.80;99.90;;;;;;4970112;28;20031;-84
2022/12/21 11:49:37;;;;;;;54.47;26.33;;;9.80;99.90;;;;;;4991108;28;20476;-83
2022/12/21 11:52:08;;;;;;;45.35;21.17;;;9.90;99.90;;;;;;4994363;28;20384;-90
2022/12/21 11:54:46;;;;;;;45.55;20.95;;;9.90;99.90;;;;;;4994044;28;20033;-89
2022/12/21 11:57:29;;;;;;;42.20;21.67;;;9.90;99.90;;;;;;4981343;28;20085;-89
2022/12/21 12:00:05;;;;;;;41.10;20.02;;;9.90;99.90;;;;;;4976667;28;20035;-89
2022/12/21 12:02:55;;;;;;;42.88;17.58;;;9.90;99.90;;;;;;4974673;28;20492;-89
2022/12/21 12:05:44;;;;;;;44.38;20.85;;;9.90;99.90;;;;;;4983190;28;20072;-89
2022/12/21 12:08:32;;;;;;;39.25;18.67;;;9.90;99.90;;;;;;4984509;28;20030;-88
2022/12/21 12:11:39;;;;;;;38.03;18.45;;;9.90;99.90;;;;;;4982737;28;20030;-89
2022/12/21 12:14:23;;;;;;;36.75;17.88;;;9.90;99.90;;;;;;4983464;28;20019;-90
2022/12/21 12:17:01;;;;;;;37.70;18.05;;;10.00;99.90;;;;;;4980767;28;20464;-90
2022/12/21 12:19:30;;;;;;;44.67;17.55;;;10.00;99.90;;;;;;4984617;28;20487;-90
2022/12/21 12:22:29;;;;;;;35.72;17.70;;;10.00;99.90;;;;;;4992746;28;20125;-92
2022/12/21 12:25:32;;;;;;;30.42;15.68;;;10.00;99.90;;;;;;4982525;28;20073;-91
2022/12/21 12:28:43;;;;;;;27.17;15.57;;;10.00;99.90;;;;;;4979287;28;20041;-90
2022/12/21 12:31:13;;;;;;;35.33;17.52;;;10.00;99.90;;;;;;4988628;28;20127;-90
2022/12/21 12:33:39;;;;;;;30.77;16.20;;;10.00;99.90;;;;;;4987128;28;20034;-90
2022/12/21 12:36:45;;;;;;;32.03;17.00;;;10.00;99.90;;;;;;4973774;28;20031;-89
2022/12/21 12:39:29;;;;;;;34.10;17.70;;;10.00;99.90;;;;;;4977066;28;20069;-89
2022/12/21 12:42:08;;;;;;;38.20;19.52;;;9.90;99.90;;;;;;4977957;28;20108;-89
2022/12/21 12:45:11;;;;;;;35.67;19.20;;;9.90;99.90;;;;;;4992799;28;20023;-89
2022/12/21 12:47:40;;;;;;;34.05;17.75;;;9.90;99.90;;;;;;4992870;28;20029;-89
2022/12/21 12:50:36;;;;;;;34.17;18.23;;;9.90;99.90;;;;;;4991613;28;20034;-90
2022/12/21 12:53:05;;;;;;;33.85;16.70;;;9.90;99.90;;;;;;4980743;28;20034;-89
2022/12/21 12:55:39;;;;;;;27.50;16.52;;;9.90;99.90;;;;;;4973917;28;20121;-90
2022/12/21 12:58:14;;;;;;;26.55;16.50;;;9.90;99.90;;;;;;4985691;28;20026;-84
2022/12/21 13:00:53;;;;;;;29.45;16.48;;;9.90;99.90;;;;;;4979110;28;20030;-83